createdAt,value
2018-12-02T00:00:19.392Z,4.30
2018-12-02T00:02:47.155Z,4.30
2018-12-02T00:05:14.945Z,4.30
2018-12-02T00:07:42.730Z,4.30
2018-12-02T00:10:11.650Z,4.30
2018-12-02T00:12:39.386Z,4.30
2018-12-02T00:15:14.401Z,4.30
2018-12-02T00:17:42.126Z,4.30
2018-12-02T00:20:11.882Z,4.30
2018-12-02T00:22:39.792Z,4.30
2018-12-02T00:25:10.683Z,4.30
2018-12-02T00:27:38.587Z,4.30
2018-12-02T00:30:12.692Z,4.30
2018-12-02T00:32:40.504Z,4.30
2018-12-02T00:35:10.500Z,4.30
2018-12-02T00:37:38.610Z,4.30
2018-12-02T00:40:10.820Z,4.30
2018-12-02T00:42:38.780Z,4.30
2018-12-02T00:45:09.531Z,4.30
2018-12-02T00:47:37.306Z,4.30
2018-12-02T00:50:07.942Z,4.30
2018-12-02T00:52:35.710Z,4.30
2018-12-02T00:55:03.940Z,4.30
2018-12-02T00:57:31.640Z,4.30
2018-12-02T00:59:59.359Z,4.30
2018-12-02T01:02:27.129Z,4.30
2018-12-02T01:04:54.939Z,4.30
2018-12-02T01:07:22.701Z,4.30
2018-12-02T01:09:50.384Z,4.30
2018-12-02T01:12:18.124Z,4.30
2018-12-02T01:14:45.832Z,4.30
2018-12-02T01:17:13.566Z,4.30
2018-12-02T01:19:41.329Z,4.30
2018-12-02T01:22:09.107Z,4.30
2018-12-02T01:24:36.800Z,4.30
2018-12-02T01:27:04.595Z,4.30
2018-12-02T01:29:32.294Z,4.20
2018-12-02T01:32:00.023Z,4.20
2018-12-02T01:34:27.776Z,4.30
2018-12-02T01:36:55.520Z,4.30
2018-12-02T01:39:23.287Z,4.30
2018-12-02T01:41:51.037Z,4.30
2018-12-02T01:44:18.842Z,4.30
2018-12-02T01:46:46.562Z,4.30
2018-12-02T01:49:14.297Z,4.30
2018-12-02T01:51:42.029Z,4.20
2018-12-02T01:54:09.806Z,4.20
2018-12-02T01:56:37.567Z,4.20
2018-12-02T01:59:05.844Z,4.30
2018-12-02T02:01:33.593Z,4.30
2018-12-02T02:04:01.364Z,4.30
2018-12-02T02:06:29.067Z,4.30
2018-12-02T02:08:56.808Z,4.30
2018-12-02T02:11:24.579Z,4.30
2018-12-02T02:13:52.335Z,4.30
2018-12-02T02:16:20.068Z,4.30
2018-12-02T02:18:47.811Z,4.30
2018-12-02T02:21:15.783Z,4.30
2018-12-02T02:23:43.543Z,4.30
2018-12-02T02:26:11.296Z,4.30
2018-12-02T02:28:38.992Z,4.30
2018-12-02T02:31:06.735Z,4.30
2018-12-02T02:33:34.567Z,4.30
2018-12-02T02:36:02.259Z,4.30
2018-12-02T02:38:30.004Z,4.30
2018-12-02T02:40:57.743Z,4.30
2018-12-02T02:43:25.499Z,4.30
2018-12-02T02:45:53.249Z,4.30
2018-12-02T02:48:20.933Z,4.30
2018-12-02T02:50:48.698Z,4.30
2018-12-02T02:53:16.422Z,4.30
2018-12-02T02:55:44.144Z,4.30
2018-12-02T02:58:11.897Z,4.20
2018-12-02T03:00:39.702Z,4.20
2018-12-02T03:03:07.438Z,4.30
2018-12-02T03:05:35.162Z,4.30
2018-12-02T03:08:02.918Z,4.30
2018-12-02T03:10:30.645Z,4.30
2018-12-02T03:12:58.386Z,4.30
2018-12-02T03:15:26.072Z,4.30
2018-12-02T03:17:53.818Z,4.30
2018-12-02T03:20:22.142Z,4.30
2018-12-02T03:22:53.653Z,4.20
2018-12-02T03:25:22.576Z,4.20
2018-12-02T03:27:50.663Z,4.20
2018-12-02T03:30:19.287Z,4.20
2018-12-02T03:32:47.205Z,4.20
2018-12-02T03:35:19.998Z,4.20
2018-12-02T03:37:47.764Z,4.20
2018-12-02T03:40:19.367Z,4.20
2018-12-02T03:42:47.171Z,4.20
2018-12-02T03:45:15.943Z,4.20
2018-12-02T03:47:43.763Z,4.20
2018-12-02T03:50:17.809Z,4.20
2018-12-02T03:52:44.175Z,4.20
2018-12-02T03:55:12.052Z,4.20
2018-12-02T03:57:39.848Z,4.20
2018-12-02T04:00:16.739Z,4.20
2018-12-02T04:02:44.460Z,4.20
2018-12-02T04:05:13.532Z,4.20
2018-12-02T04:07:41.296Z,4.20
2018-12-02T04:10:13.992Z,4.20
2018-12-02T04:12:41.874Z,4.20
2018-12-02T04:15:12.020Z,4.20
2018-12-02T04:17:39.799Z,4.20
2018-12-02T04:20:12.484Z,4.20
2018-12-02T04:22:40.318Z,4.20
2018-12-02T04:25:10.423Z,4.20
2018-12-02T04:27:38.160Z,4.20
2018-12-02T04:30:14.560Z,4.20
2018-12-02T04:32:42.415Z,4.10
2018-12-02T04:35:12.428Z,4.10
2018-12-02T04:37:40.212Z,4.10
2018-12-02T04:40:09.251Z,4.10
2018-12-02T04:42:36.993Z,4.10
2018-12-02T04:45:07.300Z,4.10
2018-12-02T04:47:35.052Z,4.10
2018-12-02T04:50:03.361Z,4.10
2018-12-02T04:52:31.108Z,4.10
2018-12-02T04:54:58.880Z,4.10
2018-12-02T04:57:26.673Z,4.00
2018-12-02T04:59:54.381Z,4.00
2018-12-02T05:02:22.080Z,4.00
2018-12-02T05:04:49.831Z,4.00
2018-12-02T05:07:17.592Z,4.10
2018-12-02T05:09:45.335Z,4.10
2018-12-02T05:12:13.020Z,4.10
2018-12-02T05:14:40.728Z,4.10
2018-12-02T05:17:08.535Z,4.10
2018-12-02T05:19:36.237Z,4.10
2018-12-02T05:22:04.387Z,4.10
2018-12-02T05:24:32.104Z,4.10
2018-12-02T05:26:59.805Z,4.20
2018-12-02T05:29:27.576Z,4.20
2018-12-02T05:31:55.645Z,4.10
2018-12-02T05:34:23.376Z,4.10
2018-12-02T05:36:51.092Z,4.00
2018-12-02T05:39:18.836Z,4.00
2018-12-02T05:41:52.033Z,4.00
2018-12-02T05:44:19.790Z,4.00
2018-12-02T05:46:47.534Z,4.00
2018-12-02T05:49:15.212Z,4.00
2018-12-02T05:51:42.939Z,4.10
2018-12-02T05:54:10.711Z,4.00
2018-12-02T05:56:38.431Z,4.00
2018-12-02T05:59:06.238Z,4.00
2018-12-02T06:01:33.938Z,4.00
2018-12-02T06:04:01.694Z,4.00
2018-12-02T06:06:29.428Z,4.00
2018-12-02T06:08:57.179Z,4.00
2018-12-02T06:11:24.900Z,4.00
2018-12-02T06:13:52.709Z,4.00
2018-12-02T06:16:20.417Z,4.00
2018-12-02T06:18:48.151Z,4.00
2018-12-02T06:21:15.942Z,3.90
2018-12-02T06:23:43.796Z,3.90
2018-12-02T06:26:11.644Z,3.90
2018-12-02T06:28:39.405Z,3.80
2018-12-02T06:31:07.205Z,3.80
2018-12-02T06:33:34.923Z,3.80
2018-12-02T06:36:02.701Z,3.80
2018-12-02T06:38:30.587Z,3.80
2018-12-02T06:40:58.286Z,3.80
2018-12-02T06:43:26.069Z,3.80
2018-12-02T06:45:53.832Z,3.80
2018-12-02T06:48:21.544Z,3.80
2018-12-02T06:50:49.320Z,3.70
2018-12-02T06:53:17.075Z,3.80
2018-12-02T06:55:53.154Z,3.70
2018-12-02T06:58:31.217Z,3.80
2018-12-02T07:01:16.063Z,3.80
2018-12-02T07:03:55.339Z,3.80
2018-12-02T07:06:23.074Z,3.80
2018-12-02T07:08:50.841Z,3.70
2018-12-02T07:11:18.608Z,3.70
2018-12-02T07:13:46.316Z,3.70
2018-12-02T07:16:14.083Z,3.70
2018-12-02T07:18:46.404Z,3.70
2018-12-02T07:21:18.615Z,3.70
2018-12-02T07:23:50.891Z,3.80
2018-12-02T07:26:22.560Z,3.70
2018-12-02T07:28:50.328Z,3.70
2018-12-02T07:31:18.106Z,3.70
2018-12-02T07:33:45.818Z,3.70
2018-12-02T07:36:13.603Z,3.70
2018-12-02T07:39:07.760Z,3.80
2018-12-02T07:41:35.555Z,3.80
2018-12-02T07:44:03.263Z,3.80
2018-12-02T07:46:31.014Z,3.80
2018-12-02T07:48:58.792Z,3.80
2018-12-02T07:51:26.506Z,3.80
2018-12-02T07:53:54.216Z,3.80
2018-12-02T07:56:21.948Z,3.80
2018-12-02T07:58:49.711Z,3.80
2018-12-02T08:01:17.447Z,3.90
2018-12-02T08:03:45.208Z,3.90
2018-12-02T08:06:13.008Z,3.80
2018-12-02T08:08:40.712Z,3.80
2018-12-02T08:11:08.466Z,3.80
2018-12-02T08:13:36.225Z,3.80
2018-12-02T08:16:03.936Z,3.80
2018-12-02T08:18:31.649Z,3.80
2018-12-02T08:20:59.402Z,3.80
2018-12-02T08:23:27.127Z,3.90
2018-12-02T08:25:54.881Z,3.90
2018-12-02T08:28:22.619Z,3.90
2018-12-02T08:30:50.398Z,4.00
2018-12-02T08:33:18.122Z,4.00
2018-12-02T08:35:45.923Z,4.00
2018-12-02T08:38:13.648Z,4.00
2018-12-02T08:40:41.337Z,4.00
2018-12-02T08:43:09.106Z,4.10
2018-12-02T08:45:38.080Z,4.10
2018-12-02T08:48:04.920Z,4.10
2018-12-02T08:50:32.727Z,4.10
2018-12-02T08:53:00.452Z,4.10
2018-12-02T08:55:28.192Z,4.20
2018-12-02T08:57:55.945Z,4.20
2018-12-02T09:00:33.480Z,4.10
2018-12-02T09:03:03.175Z,4.10
2018-12-02T09:05:31.027Z,4.20
2018-12-02T09:07:59.955Z,4.20
2018-12-02T09:10:28.879Z,4.20
2018-12-02T09:12:59.870Z,4.10
2018-12-02T09:15:27.649Z,4.20
2018-12-02T09:17:55.409Z,4.20
2018-12-02T09:20:26.552Z,4.20
2018-12-02T09:22:54.296Z,4.20
2018-12-02T09:25:22.104Z,4.20
2018-12-02T09:27:50.006Z,4.20
2018-12-02T09:30:33.656Z,4.30
2018-12-02T09:33:01.420Z,4.30
2018-12-02T09:35:29.202Z,4.30
2018-12-02T09:37:56.939Z,4.30
2018-12-02T09:40:24.720Z,4.30
2018-12-02T09:42:53.518Z,4.30
2018-12-02T09:45:26.164Z,4.20
2018-12-02T09:47:55.322Z,4.20
2018-12-02T09:50:23.016Z,4.20
2018-12-02T09:52:50.831Z,4.20
2018-12-02T09:55:21.679Z,4.30
2018-12-02T09:57:49.637Z,4.30
2018-12-02T10:00:18.664Z,4.30
2018-12-02T10:02:46.467Z,4.30
2018-12-02T10:05:14.295Z,4.30
2018-12-02T10:07:42.037Z,4.30
2018-12-02T10:10:22.445Z,4.20
2018-12-02T10:13:19.051Z,4.20
2018-12-02T10:15:46.838Z,4.20
2018-12-02T10:18:14.700Z,4.20
2018-12-02T10:20:42.480Z,4.20
2018-12-02T10:23:10.290Z,4.20
2018-12-02T10:25:38.046Z,4.20
2018-12-02T10:28:06.574Z,4.20
2018-12-02T10:30:34.639Z,4.20
2018-12-02T10:33:02.380Z,4.10
2018-12-02T10:35:30.136Z,4.20
2018-12-02T10:37:57.824Z,4.20
2018-12-02T10:40:26.617Z,4.20
2018-12-02T10:42:54.356Z,4.20
2018-12-02T10:45:25.172Z,4.20
2018-12-02T10:47:54.187Z,4.20
2018-12-02T10:50:27.119Z,4.20
2018-12-02T10:52:58.149Z,4.20
2018-12-02T10:55:35.913Z,4.30
2018-12-02T10:58:03.720Z,4.30
2018-12-02T11:00:37.095Z,4.30
2018-12-02T11:03:04.884Z,4.30
2018-12-02T11:05:32.668Z,4.30
2018-12-02T11:08:00.415Z,4.30
2018-12-02T11:10:28.132Z,4.30
2018-12-02T11:12:55.964Z,4.40
2018-12-02T11:15:25.235Z,4.40
2018-12-02T11:17:53.113Z,4.40
2018-12-02T11:21:24.035Z,4.50
2018-12-02T11:23:51.763Z,4.50
2018-12-02T11:26:19.501Z,4.50
2018-12-02T11:28:47.352Z,4.60
2018-12-02T11:31:15.084Z,4.60
2018-12-02T11:33:42.898Z,4.60
2018-12-02T11:36:10.720Z,4.70
2018-12-02T11:38:38.536Z,4.70
2018-12-02T11:41:06.679Z,4.80
2018-12-02T11:43:34.474Z,4.90
2018-12-02T11:46:02.279Z,4.90
2018-12-02T11:48:30.024Z,4.90
2018-12-02T11:50:57.830Z,5.00
2018-12-02T11:53:25.606Z,5.00
2018-12-02T11:55:53.415Z,5.10
2018-12-02T11:58:21.231Z,5.10
2018-12-02T12:00:48.980Z,5.10
2018-12-02T12:03:16.708Z,5.10
2018-12-02T12:05:44.414Z,5.10
2018-12-02T12:08:12.238Z,5.10
2018-12-02T12:10:40.083Z,5.10
2018-12-02T12:13:07.811Z,5.10
2018-12-02T12:15:36.688Z,5.10
2018-12-02T12:18:05.561Z,5.10
2018-12-02T12:20:38.175Z,5.10
2018-12-02T12:23:07.156Z,5.10
2018-12-02T12:25:34.925Z,5.10
2018-12-02T12:28:02.690Z,5.00
2018-12-02T12:30:32.144Z,5.10
2018-12-02T12:33:00.012Z,5.10
2018-12-02T12:35:27.825Z,5.10
2018-12-02T12:37:55.633Z,5.00
2018-12-02T12:40:26.617Z,5.00
2018-12-02T12:42:57.274Z,5.00
2018-12-02T12:45:25.155Z,4.90
2018-12-02T12:47:52.848Z,4.90
2018-12-02T12:50:20.567Z,4.80
2018-12-02T12:52:48.332Z,4.80
2018-12-02T12:55:16.559Z,4.80
2018-12-02T12:57:44.747Z,4.80
2018-12-02T13:00:17.446Z,4.80
2018-12-02T13:02:45.590Z,4.70
2018-12-02T13:05:14.951Z,4.70
2018-12-02T13:07:42.688Z,4.70
2018-12-02T13:10:12.784Z,4.70
2018-12-02T13:12:40.820Z,4.60
2018-12-02T13:15:11.240Z,4.60
2018-12-02T13:17:39.151Z,4.70
2018-12-02T13:20:13.414Z,4.80
2018-12-02T13:22:41.381Z,4.70
2018-12-02T13:25:10.482Z,4.70
2018-12-02T13:27:38.294Z,4.70
2018-12-02T13:30:11.257Z,4.70
2018-12-02T13:32:39.036Z,4.70
2018-12-02T13:35:07.298Z,4.60
2018-12-02T13:37:35.010Z,4.70
2018-12-02T13:40:03.062Z,4.70
2018-12-02T13:42:30.830Z,4.60
2018-12-02T13:44:58.670Z,4.60
2018-12-02T13:47:26.503Z,4.60
2018-12-02T13:49:54.227Z,4.60
2018-12-02T13:52:24.494Z,4.60
2018-12-02T13:54:54.514Z,4.50
2018-12-02T13:57:24.527Z,4.60
2018-12-02T13:59:54.199Z,4.60
2018-12-02T14:02:22.236Z,4.50
2018-12-02T14:04:50.983Z,4.50
2018-12-02T14:07:20.708Z,4.50
2018-12-02T14:09:49.816Z,4.40
2018-12-02T14:12:24.819Z,4.40
2018-12-02T14:14:54.833Z,4.50
2018-12-02T14:17:24.560Z,4.40
2018-12-02T14:19:56.346Z,4.40
2018-12-02T14:22:25.260Z,4.50
2018-12-02T14:25:02.729Z,4.50
2018-12-02T14:27:28.118Z,4.40
2018-12-02T14:29:58.828Z,4.30
2018-12-02T14:32:28.346Z,4.40
2018-12-02T14:34:56.716Z,4.40
2018-12-02T14:37:37.804Z,4.40
2018-12-02T14:40:34.293Z,4.40
2018-12-02T14:43:10.020Z,4.40
2018-12-02T14:45:54.885Z,4.40
2018-12-02T14:48:23.060Z,4.40
2018-12-02T14:50:56.455Z,4.30
2018-12-02T14:53:25.354Z,4.30
2018-12-02T14:55:57.107Z,4.40
2018-12-02T14:58:27.597Z,4.40
2018-12-02T15:01:03.269Z,4.40
2018-12-02T15:03:42.483Z,4.30
2018-12-02T15:11:37.352Z,4.50
2018-12-02T15:14:17.325Z,4.50
2018-12-02T15:17:03.553Z,4.50
2018-12-02T15:19:33.921Z,4.50
2018-12-02T15:25:38.878Z,4.60
2018-12-02T15:28:10.546Z,4.60
2018-12-02T15:30:50.252Z,4.70
2018-12-02T15:33:29.777Z,4.60
2018-12-02T15:36:05.200Z,4.60
2018-12-02T15:38:41.901Z,4.60
2018-12-02T15:41:11.693Z,4.60
2018-12-02T15:43:40.891Z,4.70
2018-12-02T15:46:09.373Z,4.70
2018-12-02T15:48:38.457Z,4.70
2018-12-02T15:51:14.356Z,4.70
2018-12-02T15:53:59.677Z,4.70
2018-12-02T15:56:30.285Z,4.80
2018-12-02T15:59:08.878Z,4.70
2018-12-02T16:01:41.893Z,4.80
2018-12-02T16:04:29.831Z,4.80
2018-12-02T16:06:59.304Z,4.80
2018-12-02T16:09:29.198Z,4.80
2018-12-02T16:12:14.754Z,4.80
2018-12-02T16:17:31.739Z,4.80
2018-12-02T16:20:10.557Z,4.80
2018-12-02T16:23:00.878Z,4.90
2018-12-02T16:25:29.992Z,4.80
2018-12-02T16:28:08.635Z,4.90
2018-12-02T16:30:42.544Z,4.90
2018-12-02T16:33:12.373Z,4.90
2018-12-02T16:36:17.228Z,4.90
2018-12-02T16:38:46.870Z,4.90
2018-12-02T16:41:16.918Z,4.80
2018-12-02T16:43:50.513Z,4.90
2018-12-02T16:46:44.288Z,4.90
2018-12-02T16:49:17.362Z,4.90
2018-12-02T16:51:45.761Z,4.90
2018-12-02T16:54:36.573Z,4.80
2018-12-02T16:57:09.305Z,4.80
2018-12-02T16:59:42.287Z,4.80
2018-12-02T17:02:16.838Z,4.80
2018-12-02T17:04:46.487Z,4.90
2018-12-02T17:07:16.370Z,4.90
2018-12-02T17:09:53.141Z,4.90
2018-12-02T17:15:48.826Z,4.90
2018-12-02T17:18:19.431Z,4.90
2018-12-02T17:20:59.358Z,4.90
2018-12-02T17:23:27.924Z,5.00
2018-12-02T17:25:57.956Z,5.00
2018-12-02T17:28:49.474Z,5.00
2018-12-02T17:31:38.030Z,5.00
2018-12-02T17:34:09.068Z,5.00
2018-12-02T17:36:42.742Z,5.00
2018-12-02T17:39:15.326Z,5.00
2018-12-02T17:41:50.324Z,5.00
2018-12-02T17:44:20.504Z,5.00
2018-12-02T17:46:50.131Z,5.00
2018-12-02T17:49:21.227Z,5.00
2018-12-02T17:51:53.731Z,5.00
2018-12-02T17:54:22.261Z,5.10
2018-12-02T17:56:51.488Z,5.20
2018-12-02T17:59:19.940Z,5.20
2018-12-02T18:01:48.081Z,5.20
2018-12-02T18:04:17.949Z,5.10
2018-12-02T18:06:47.089Z,5.20
2018-12-02T18:09:16.870Z,5.20
2018-12-02T18:11:45.089Z,5.20
2018-12-02T18:14:13.711Z,5.20
2018-12-02T18:16:42.349Z,5.20
2018-12-02T18:19:13.355Z,5.20
2018-12-02T18:21:45.829Z,5.30
2018-12-02T18:24:16.218Z,5.30
2018-12-02T18:26:46.067Z,5.40
2018-12-02T18:29:16.063Z,5.40
2018-12-02T18:31:44.769Z,5.30
2018-12-02T18:34:14.053Z,5.30
2018-12-02T18:36:42.926Z,5.30
2018-12-02T18:39:14.278Z,5.40
2018-12-02T18:41:46.884Z,5.30
2018-12-02T18:44:37.788Z,5.40
2018-12-02T18:47:09.238Z,5.40
2018-12-02T18:49:41.823Z,5.40
2018-12-02T18:52:15.923Z,5.40
2018-12-02T18:54:46.688Z,5.40
2018-12-02T18:57:35.305Z,5.50
2018-12-02T19:00:09.226Z,5.50
2018-12-02T19:03:14.201Z,5.50
2018-12-02T19:05:45.093Z,5.50
2018-12-02T19:08:13.787Z,5.40
2018-12-02T19:10:42.824Z,5.50
2018-12-02T19:13:16.284Z,5.50
2018-12-02T19:15:45.837Z,5.40
2018-12-02T19:18:19.976Z,5.40
2018-12-02T19:20:52.512Z,5.50
2018-12-02T19:23:34.765Z,5.50
2018-12-02T19:26:08.173Z,5.50
2018-12-02T19:28:36.575Z,5.50
2018-12-02T19:31:06.949Z,5.50
2018-12-02T19:33:36.319Z,5.50
2018-12-02T19:36:15.695Z,5.50
2018-12-02T19:38:46.535Z,5.50
2018-12-02T19:41:19.011Z,5.60
2018-12-02T19:43:47.314Z,5.60
2018-12-02T19:46:17.611Z,5.60
2018-12-02T19:48:48.117Z,5.70
2018-12-02T19:51:17.541Z,5.70
2018-12-02T19:53:47.103Z,5.70
2018-12-02T19:56:15.610Z,5.60
2018-12-02T19:58:47.048Z,5.60
2018-12-02T20:01:15.359Z,5.70
2018-12-02T20:03:44.827Z,5.60
2018-12-02T20:06:14.237Z,5.60
2018-12-02T20:08:55.143Z,5.60
2018-12-02T20:11:23.814Z,5.60
2018-12-02T20:13:54.197Z,5.60
2018-12-02T20:16:25.406Z,5.60
2018-12-02T20:19:07.046Z,5.60
2018-12-02T20:21:50.910Z,5.60
2018-12-02T20:27:09.288Z,5.60
2018-12-02T20:29:59.212Z,5.70
2018-12-02T20:32:29.993Z,5.70
2018-12-02T20:34:59.272Z,5.60
2018-12-02T20:37:28.550Z,5.70
2018-12-02T20:39:57.174Z,5.70
2018-12-02T20:42:28.888Z,5.70
2018-12-02T20:44:58.303Z,5.80
2018-12-02T20:47:41.152Z,5.80
2018-12-02T20:50:18.641Z,5.80
2018-12-02T20:52:50.438Z,5.80
2018-12-02T20:55:24.246Z,5.80
2018-12-02T20:58:01.612Z,5.80
2018-12-02T21:00:37.882Z,5.80
2018-12-02T21:09:34.346Z,5.90
2018-12-02T21:12:04.449Z,5.80
2018-12-02T21:14:33.544Z,5.80
2018-12-02T21:19:56.796Z,5.80
2018-12-02T21:22:27.932Z,5.80
2018-12-02T21:25:02.938Z,5.80
2018-12-02T21:27:41.309Z,5.80
2018-12-02T21:30:14.502Z,5.90
2018-12-02T21:32:42.374Z,5.80
2018-12-02T21:35:10.243Z,5.90
2018-12-02T21:37:38.073Z,5.90
2018-12-02T21:40:09.599Z,5.90
2018-12-02T21:42:37.355Z,5.90
2018-12-02T21:45:07.279Z,5.90
2018-12-02T21:47:35.118Z,5.90
2018-12-02T21:50:04.047Z,6.00
2018-12-02T21:52:31.896Z,6.00
2018-12-02T21:54:59.679Z,6.00
2018-12-02T21:57:27.491Z,6.00
2018-12-02T21:59:55.345Z,6.00
2018-12-02T22:02:23.173Z,6.00
2018-12-02T22:04:50.951Z,6.00
2018-12-02T22:07:18.715Z,6.00
2018-12-02T22:09:46.451Z,6.00
2018-12-02T22:12:14.296Z,6.00
2018-12-02T22:14:42.083Z,6.00
2018-12-02T22:17:09.963Z,6.10
2018-12-02T22:19:37.762Z,6.00
2018-12-02T22:22:05.885Z,6.00
2018-12-02T22:24:33.667Z,6.00
2018-12-02T22:27:01.440Z,6.00
2018-12-02T22:29:29.244Z,6.00
2018-12-02T22:31:57.047Z,6.00
2018-12-02T22:34:24.791Z,6.00
2018-12-02T22:36:52.618Z,6.00
2018-12-02T22:39:20.421Z,6.00
2018-12-02T22:41:48.169Z,6.00
2018-12-02T22:44:15.940Z,6.00
2018-12-02T22:46:43.765Z,6.00
2018-12-02T22:49:11.488Z,6.10
2018-12-02T22:51:39.349Z,6.10
2018-12-02T22:54:07.172Z,6.10
2018-12-02T22:56:35.025Z,6.10
2018-12-02T22:59:02.869Z,6.10
2018-12-02T23:01:36.120Z,6.10
2018-12-02T23:04:04.323Z,6.10
2018-12-02T23:06:32.234Z,6.10
2018-12-02T23:09:00.180Z,6.10
2018-12-02T23:11:28.084Z,6.10
2018-12-02T23:13:55.980Z,6.10
2018-12-02T23:16:23.851Z,6.10
2018-12-02T23:18:51.728Z,6.10
2018-12-02T23:21:19.573Z,6.10
2018-12-02T23:23:47.333Z,6.20
2018-12-02T23:26:15.218Z,6.10
2018-12-02T23:28:43.004Z,6.10
2018-12-02T23:31:10.882Z,6.10
2018-12-02T23:33:38.764Z,6.20
2018-12-02T23:36:06.648Z,6.10
2018-12-02T23:38:34.541Z,6.10
2018-12-02T23:41:02.425Z,6.10
2018-12-02T23:43:30.297Z,6.10
2018-12-02T23:45:58.179Z,6.20
2018-12-02T23:48:26.073Z,6.20
2018-12-02T23:50:53.903Z,6.20
2018-12-02T23:53:21.827Z,6.20
2018-12-02T23:55:49.771Z,6.20
2018-12-02T23:58:17.700Z,6.20
